sensor_id;sensor_type;location;lat;lon;timestamp;temperature;humidity
53254;DHT22;75200;53.048;7.552;2024-02-28T08:47:23;3.90;99.90
53254;DHT22;75200;53.048;7.552;2024-02-28T09:11:47;4.60;99.90
53254;DHT22;75200;53.048;7.552;2024-02-28T09:21:31;4.90;99.90
53254;DHT22;75200;53.048;7.552;2024-02-28T09:33:42;5.00;99.90
53254;DHT22;75200;53.048;7.552;2024-02-28T09:45:56;5.30;99.90
53254;DHT22;75200;53.048;7.552;2024-02-28T09:50:49;5.50;99.90
53254;DHT22;75200;53.048;7.552;2024-02-28T09:55:41;5.50;99.90
53254;DHT22;75200;53.048;7.552;2024-02-28T10:00:35;5.60;99.90
53254;DHT22;75200;53.048;7.552;2024-02-28T10:03:03;5.40;99.90
53254;DHT22;75200;53.048;7.552;2024-02-28T10:05:29;5.60;99.90
53254;DHT22;75200;53.048;7.552;2024-02-28T10:10:22;5.20;99.90
53254;DHT22;75200;53.048;7.552;2024-02-28T10:12:48;5.30;99.90
53254;DHT22;75200;53.048;7.552;2024-02-28T10:17:39;5.40;99.90
53254;DHT22;75200;53.048;7.552;2024-02-28T10:20:06;5.50;99.90
53254;DHT22;75200;53.048;7.552;2024-02-28T10:25:05;5.40;99.90
53254;DHT22;75200;53.048;7.552;2024-02-28T10:30:02;5.60;99.90
53254;DHT22;75200;53.048;7.552;2024-02-28T10:35:01;5.70;99.90
53254;DHT22;75200;53.048;7.552;2024-02-28T10:37:32;5.90;99.90
53254;DHT22;75200;53.048;7.552;2024-02-28T10:42:29;6.00;99.90
53254;DHT22;75200;53.048;7.552;2024-02-28T10:44:57;6.00;99.90
53254;DHT22;75200;53.048;7.552;2024-02-28T10:49:50;6.30;99.90
53254;DHT22;75200;53.048;7.552;2024-02-28T10:52:19;6.00;99.90
53254;DHT22;75200;53.048;7.552;2024-02-28T10:54:53;6.10;99.90
53254;DHT22;75200;53.048;7.552;2024-02-28T10:57:21;6.10;99.90
53254;DHT22;75200;53.048;7.552;2024-02-28T11:07:09;6.00;99.90
53254;DHT22;75200;53.048;7.552;2024-02-28T11:12:04;6.40;99.90
53254;DHT22;75200;53.048;7.552;2024-02-28T11:14:30;6.50;99.90
53254;DHT22;75200;53.048;7.552;2024-02-28T11:19:30;6.60;99.90
53254;DHT22;75200;53.048;7.552;2024-02-28T11:21:57;6.60;99.90
53254;DHT22;75200;53.048;7.552;2024-02-28T11:24:24;6.70;99.90
53254;DHT22;75200;53.048;7.552;2024-02-28T11:29:25;6.80;99.90
53254;DHT22;75200;53.048;7.552;2024-02-28T11:34:18;7.20;99.90
53254;DHT22;75200;53.048;7.552;2024-02-28T11:36:47;7.30;99.90
53254;DHT22;75200;53.048;7.552;2024-02-28T11:46:32;7.40;99.90
53254;DHT22;75200;53.048;7.552;2024-02-28T11:51:25;7.70;99.90
53254;DHT22;75200;53.048;7.552;2024-02-28T11:56:16;7.70;99.90
53254;DHT22;75200;53.048;7.552;2024-02-28T11:58:50;7.90;99.90
53254;DHT22;75200;53.048;7.552;2024-02-28T12:01:16;7.80;99.90
53254;DHT22;75200;53.048;7.552;2024-02-28T12:03:45;7.80;99.90
53254;DHT22;75200;53.048;7.552;2024-02-28T12:06:11;7.80;99.90
53254;DHT22;75200;53.048;7.552;2024-02-28T12:11:09;7.90;99.90
53254;DHT22;75200;53.048;7.552;2024-02-28T12:13:37;8.00;99.90
53254;DHT22;75200;53.048;7.552;2024-02-28T12:18:29;8.20;99.90
53254;DHT22;75200;53.048;7.552;2024-02-28T12:20:55;8.10;99.90
53254;DHT22;75200;53.048;7.552;2024-02-28T12:23:22;8.20;99.90
53254;DHT22;75200;53.048;7.552;2024-02-28T12:28:14;8.30;99.90
53254;DHT22;75200;53.048;7.552;2024-02-28T12:30:42;8.40;99.90
53254;DHT22;75200;53.048;7.552;2024-02-28T12:33:08;8.50;99.90
53254;DHT22;75200;53.048;7.552;2024-02-28T12:40:26;8.50;99.90
53254;DHT22;75200;53.048;7.552;2024-02-28T12:42:52;8.60;99.90
53254;DHT22;75200;53.048;7.552;2024-02-28T12:47:44;8.70;99.90
53254;DHT22;75200;53.048;7.552;2024-02-28T12:55:03;8.50;99.90
53254;DHT22;75200;53.048;7.552;2024-02-28T12:57:29;8.70;99.90
53254;DHT22;75200;53.048;7.552;2024-02-28T12:59:55;8.60;99.90
53254;DHT22;75200;53.048;7.552;2024-02-28T13:04:48;8.70;99.90
53254;DHT22;75200;53.048;7.552;2024-02-28T13:07:14;8.60;99.90
53254;DHT22;75200;53.048;7.552;2024-02-28T13:12:07;8.50;99.90
53254;DHT22;75200;53.048;7.552;2024-02-28T13:14:34;8.70;99.90
53254;DHT22;75200;53.048;7.552;2024-02-28T13:19:26;8.80;99.90
53254;DHT22;75200;53.048;7.552;2024-02-28T13:21:52;9.00;99.90
53254;DHT22;75200;53.048;7.552;2024-02-28T13:24:17;8.90;99.90
53254;DHT22;75200;53.048;7.552;2024-02-28T13:26:43;8.90;99.90
53254;DHT22;75200;53.048;7.552;2024-02-28T13:34:02;8.60;99.90
53254;DHT22;75200;53.048;7.552;2024-02-28T13:36:29;8.50;99.90
53254;DHT22;75200;53.048;7.552;2024-02-28T13:38:57;8.40;99.90
53254;DHT22;75200;53.048;7.552;2024-02-28T13:41:23;8.40;99.90
53254;DHT22;75200;53.048;7.552;2024-02-28T13:43:49;8.40;99.90
53254;DHT22;75200;53.048;7.552;2024-02-28T13:48:41;8.30;99.90
53254;DHT22;75200;53.048;7.552;2024-02-28T13:53:33;8.20;99.90
53254;DHT22;75200;53.048;7.552;2024-02-28T14:00:51;8.00;99.90
53254;DHT22;75200;53.048;7.552;2024-02-28T14:03:17;7.70;99.90
53254;DHT22;75200;53.048;7.552;2024-02-28T14:10:38;7.90;99.90
53254;DHT22;75200;53.048;7.552;2024-02-28T14:13:04;7.90;99.90
53254;DHT22;75200;53.048;7.552;2024-02-28T14:17:56;7.70;99.90
53254;DHT22;75200;53.048;7.552;2024-02-28T14:25:15;7.70;99.90
53254;DHT22;75200;53.048;7.552;2024-02-28T14:27:43;7.70;99.90
53254;DHT22;75200;53.048;7.552;2024-02-28T14:30:10;7.80;99.90
53254;DHT22;75200;53.048;7.552;2024-02-28T14:32:36;7.80;99.90
53254;DHT22;75200;53.048;7.552;2024-02-28T14:35:06;7.70;99.90
53254;DHT22;75200;53.048;7.552;2024-02-28T14:37:35;7.70;99.90
53254;DHT22;75200;53.048;7.552;2024-02-28T14:42:30;7.70;99.90
53254;DHT22;75200;53.048;7.552;2024-02-28T14:44:55;8.00;99.90
53254;DHT22;75200;53.048;7.552;2024-02-28T14:54:40;7.90;99.90
53254;DHT22;75200;53.048;7.552;2024-02-28T14:57:06;7.80;99.90
53254;DHT22;75200;53.048;7.552;2024-02-28T14:59:33;7.80;99.90
53254;DHT22;75200;53.048;7.552;2024-02-28T15:01:59;6.90;99.90
53254;DHT22;75200;53.048;7.552;2024-02-28T15:04:25;7.80;99.90
53254;DHT22;75200;53.048;7.552;2024-02-28T15:09:19;7.90;99.90
53254;DHT22;75200;53.048;7.552;2024-02-28T15:11:49;7.90;99.90
53254;DHT22;75200;53.048;7.552;2024-02-28T15:14:15;8.00;99.90
53254;DHT22;75200;53.048;7.552;2024-02-28T15:21:33;8.00;99.90
53254;DHT22;75200;53.048;7.552;2024-02-28T15:28:54;7.80;99.90
53254;DHT22;75200;53.048;7.552;2024-02-28T15:33:48;7.90;99.90
53254;DHT22;75200;53.048;7.552;2024-02-28T15:43:33;7.70;99.90
53254;DHT22;75200;53.048;7.552;2024-02-28T15:48:26;7.90;99.90
53254;DHT22;75200;53.048;7.552;2024-02-28T15:50:53;8.00;99.90
53254;DHT22;75200;53.048;7.552;2024-02-28T15:53:19;7.80;99.90
53254;DHT22;75200;53.048;7.552;2024-02-28T15:58:10;8.00;99.90
53254;DHT22;75200;53.048;7.552;2024-02-28T16:03:03;8.10;99.90
53254;DHT22;75200;53.048;7.552;2024-02-28T16:07:55;8.10;99.90
53254;DHT22;75200;53.048;7.552;2024-02-28T16:10:22;8.00;99.90
53254;DHT22;75200;53.048;7.552;2024-02-28T16:12:49;7.90;99.90
53254;DHT22;75200;53.048;7.552;2024-02-28T16:15:15;7.90;99.90
53254;DHT22;75200;53.048;7.552;2024-02-28T16:20:07;7.90;99.90
53254;DHT22;75200;53.048;7.552;2024-02-28T16:22:34;7.70;99.90
53254;DHT22;75200;53.048;7.552;2024-02-28T16:25:00;7.70;99.90
53254;DHT22;75200;53.048;7.552;2024-02-28T16:27:25;7.80;99.90
53254;DHT22;75200;53.048;7.552;2024-02-28T16:34:44;7.70;99.90
53254;DHT22;75200;53.048;7.552;2024-02-28T16:42:02;7.50;99.90
53254;DHT22;75200;53.048;7.552;2024-02-28T16:44:29;7.50;99.90
53254;DHT22;75200;53.048;7.552;2024-02-28T16:46:55;7.30;99.90
53254;DHT22;75200;53.048;7.552;2024-02-28T16:51:46;7.40;99.90
53254;DHT22;75200;53.048;7.552;2024-02-28T16:59:05;7.20;99.90
53254;DHT22;75200;53.048;7.552;2024-02-28T17:01:31;7.20;99.90
53254;DHT22;75200;53.048;7.552;2024-02-28T17:06:23;7.40;99.90
53254;DHT22;75200;53.048;7.552;2024-02-28T17:11:16;7.20;99.90
53254;DHT22;75200;53.048;7.552;2024-02-28T17:13:42;7.20;99.90
53254;DHT22;75200;53.048;7.552;2024-02-28T17:18:34;7.20;99.90
53254;DHT22;75200;53.048;7.552;2024-02-28T17:25:56;7.00;99.90
53254;DHT22;75200;53.048;7.552;2024-02-28T17:28:22;7.10;99.90
53254;DHT22;75200;53.048;7.552;2024-02-28T17:38:07;7.10;99.90
53254;DHT22;75200;53.048;7.552;2024-02-28T17:40:34;7.10;99.90
53254;DHT22;75200;53.048;7.552;2024-02-28T17:43:00;7.00;99.90
53254;DHT22;75200;53.048;7.552;2024-02-28T17:45:26;7.10;99.90
53254;DHT22;75200;53.048;7.552;2024-02-28T17:47:52;7.10;99.90
53254;DHT22;75200;53.048;7.552;2024-02-28T17:55:10;7.00;99.90
53254;DHT22;75200;53.048;7.552;2024-02-28T18:00:07;6.90;99.90
53254;DHT22;75200;53.048;7.552;2024-02-28T18:02:40;6.90;99.90
53254;DHT22;75200;53.048;7.552;2024-02-28T18:05:09;6.90;99.90
53254;DHT22;75200;53.048;7.552;2024-02-28T18:07:35;6.80;99.90
53254;DHT22;75200;53.048;7.552;2024-02-28T18:12:29;6.80;99.90
53254;DHT22;75200;53.048;7.552;2024-02-28T18:14:54;6.80;99.90
53254;DHT22;75200;53.048;7.552;2024-02-28T18:22:13;6.70;99.90
53254;DHT22;75200;53.048;7.552;2024-02-28T18:29:37;6.80;99.90
53254;DHT22;75200;53.048;7.552;2024-02-28T18:34:30;6.80;99.90
53254;DHT22;75200;53.048;7.552;2024-02-28T18:36:56;6.70;99.90
53254;DHT22;75200;53.048;7.552;2024-02-28T18:39:26;6.80;99.90
53254;DHT22;75200;53.048;7.552;2024-02-28T18:41:53;6.60;99.90
53254;DHT22;75200;53.048;7.552;2024-02-28T18:44:19;6.50;99.90
53254;DHT22;75200;53.048;7.552;2024-02-28T18:46:45;6.50;99.90
53254;DHT22;75200;53.048;7.552;2024-02-28T18:49:11;6.70;99.90
53254;DHT22;75200;53.048;7.552;2024-02-28T18:51:37;6.30;99.90
53254;DHT22;75200;53.048;7.552;2024-02-28T18:58:57;6.40;99.90
53254;DHT22;75200;53.048;7.552;2024-02-28T19:06:15;6.50;99.90
53254;DHT22;75200;53.048;7.552;2024-02-28T19:18:30;6.20;99.90
53254;DHT22;75200;53.048;7.552;2024-02-28T19:20:57;6.10;99.90
53254;DHT22;75200;53.048;7.552;2024-02-28T19:23:23;6.10;99.90
53254;DHT22;75200;53.048;7.552;2024-02-28T19:38:01;6.10;99.90
53254;DHT22;75200;53.048;7.552;2024-02-28T19:45:21;5.80;99.90
53254;DHT22;75200;53.048;7.552;2024-02-28T19:55:06;5.50;99.90
53254;DHT22;75200;53.048;7.552;2024-02-28T19:57:32;5.60;99.90
53254;DHT22;75200;53.048;7.552;2024-02-28T20:04:52;5.50;99.90
53254;DHT22;75200;53.048;7.552;2024-02-28T20:17:08;5.90;99.90
53254;DHT22;75200;53.048;7.552;2024-02-28T20:22:01;5.80;99.90
53254;DHT22;75200;53.048;7.552;2024-02-28T20:24:27;5.90;99.90
53254;DHT22;75200;53.048;7.552;2024-02-28T20:34:12;6.00;99.90
53254;DHT22;75200;53.048;7.552;2024-02-28T20:41:38;6.20;99.90
53254;DHT22;75200;53.048;7.552;2024-02-28T20:44:05;6.30;99.90
53254;DHT22;75200;53.048;7.552;2024-02-28T20:46:38;6.20;99.90
53254;DHT22;75200;53.048;7.552;2024-02-28T20:51:31;6.20;99.90
53254;DHT22;75200;53.048;7.552;2024-02-28T20:53:57;6.30;99.90
53254;DHT22;75200;53.048;7.552;2024-02-28T20:58:51;6.40;99.90
53254;DHT22;75200;53.048;7.552;2024-02-28T21:03:44;6.40;99.90
53254;DHT22;75200;53.048;7.552;2024-02-28T21:08:40;6.20;99.90
53254;DHT22;75200;53.048;7.552;2024-02-28T21:16:00;6.40;99.90
53254;DHT22;75200;53.048;7.552;2024-02-28T21:18:26;6.30;99.90
53254;DHT22;75200;53.048;7.552;2024-02-28T21:20:51;6.40;99.90
53254;DHT22;75200;53.048;7.552;2024-02-28T21:28:10;6.40;99.90
53254;DHT22;75200;53.048;7.552;2024-02-28T21:30:36;6.20;99.90
53254;DHT22;75200;53.048;7.552;2024-02-28T21:33:03;6.40;99.90
53254;DHT22;75200;53.048;7.552;2024-02-28T21:37:55;6.50;99.90
53254;DHT22;75200;53.048;7.552;2024-02-28T21:42:53;6.50;99.90
53254;DHT22;75200;53.048;7.552;2024-02-28T21:55:07;6.40;99.90
53254;DHT22;75200;53.048;7.552;2024-02-28T21:57:33;6.40;99.90
53254;DHT22;75200;53.048;7.552;2024-02-28T21:59:59;6.40;99.90
53254;DHT22;75200;53.048;7.552;2024-02-28T22:07:18;6.30;99.90
53254;DHT22;75200;53.048;7.552;2024-02-28T22:12:10;6.30;99.90
53254;DHT22;75200;53.048;7.552;2024-02-28T22:17:04;6.10;99.90
53254;DHT22;75200;53.048;7.552;2024-02-28T22:21:59;6.00;99.90
53254;DHT22;75200;53.048;7.552;2024-02-28T22:29:17;6.20;99.90
53254;DHT22;75200;53.048;7.552;2024-02-28T22:34:11;5.80;99.90
53254;DHT22;75200;53.048;7.552;2024-02-28T22:41:29;5.90;99.90
53254;DHT22;75200;53.048;7.552;2024-02-28T22:53:40;5.40;99.90
53254;DHT22;75200;53.048;7.552;2024-02-28T23:10:42;4.90;99.90
53254;DHT22;75200;53.048;7.552;2024-02-28T23:20:28;4.80;99.90
53254;DHT22;75200;53.048;7.552;2024-02-28T23:25:25;4.90;99.90
53254;DHT22;75200;53.048;7.552;2024-02-28T23:30:18;4.70;99.90
53254;DHT22;75200;53.048;7.552;2024-02-28T23:44:55;4.10;99.90
